createdAt,value
2018-07-16T00:01:19.138Z,41.90
2018-07-16T00:02:22.664Z,41.90
2018-07-16T00:03:26.077Z,41.90
2018-07-16T00:04:29.496Z,42.00
2018-07-16T00:05:33.976Z,42.00
2018-07-16T00:06:37.399Z,42.10
2018-07-16T00:07:40.796Z,42.10
2018-07-16T00:08:44.199Z,42.20
2018-07-16T00:09:47.599Z,42.20
2018-07-16T00:10:52.121Z,42.30
2018-07-16T00:11:55.542Z,42.30
2018-07-16T00:14:02.055Z,42.50
2018-07-16T00:15:07.100Z,42.50
2018-07-16T00:16:11.521Z,42.60
2018-07-16T00:17:14.996Z,42.60
2018-07-16T00:18:18.451Z,42.70
2018-07-16T00:19:21.856Z,42.70
2018-07-16T00:20:27.080Z,42.70
2018-07-16T00:21:30.875Z,42.80
2018-07-16T00:22:34.273Z,42.80
2018-07-16T00:23:37.660Z,42.90
2018-07-16T00:24:41.255Z,43.00
2018-07-16T00:25:45.758Z,42.90
2018-07-16T00:27:52.564Z,42.90
2018-07-16T00:29:59.112Z,43.20
2018-07-16T00:31:03.579Z,43.20
2018-07-16T00:32:07.395Z,43.20
2018-07-16T00:33:10.803Z,43.20
2018-07-16T00:34:14.188Z,43.20
2018-07-16T00:35:18.619Z,43.30
2018-07-16T00:36:23.254Z,43.30
2018-07-16T00:37:26.662Z,43.30
2018-07-16T00:38:30.048Z,43.40
2018-07-16T00:39:33.429Z,43.40
2018-07-16T00:40:38.022Z,43.50
2018-07-16T00:41:41.435Z,43.50
2018-07-16T00:42:44.820Z,43.50
2018-07-16T00:43:48.223Z,43.60
2018-07-16T00:44:51.685Z,43.60
2018-07-16T00:45:56.228Z,43.70
2018-07-16T00:46:59.639Z,43.70
2018-07-16T00:48:03.016Z,43.80
2018-07-16T00:49:06.500Z,44.00
2018-07-16T00:50:10.825Z,44.10
2018-07-16T00:51:15.801Z,44.10
2018-07-16T00:52:19.231Z,44.20
2018-07-16T00:53:22.611Z,44.30
2018-07-16T00:54:25.994Z,44.30
2018-07-16T00:55:30.417Z,44.40
2018-07-16T00:58:40.675Z,44.70
2018-07-16T00:59:44.052Z,44.60
2018-07-16T01:00:48.535Z,44.70
2018-07-16T01:01:51.967Z,44.80
2018-07-16T01:03:58.423Z,45.50
2018-07-16T01:05:01.804Z,45.00
2018-07-16T01:06:06.936Z,45.10
2018-07-16T01:10:20.773Z,45.30
2018-07-16T01:12:27.639Z,45.40
2018-07-16T01:13:31.048Z,45.30
2018-07-16T01:14:34.427Z,45.30
2018-07-16T01:15:39.029Z,45.40
2018-07-16T01:16:42.462Z,45.40
2018-07-16T01:17:45.858Z,45.40
2018-07-16T01:18:49.239Z,45.40
2018-07-16T01:19:52.619Z,45.40
2018-07-16T01:20:57.076Z,45.40
2018-07-16T01:24:06.711Z,45.50
2018-07-16T01:25:11.110Z,45.50
2018-07-16T01:26:16.362Z,45.50
2018-07-16T01:27:19.791Z,45.50
2018-07-16T01:28:23.180Z,45.60
2018-07-16T01:29:26.567Z,45.60
2018-07-16T01:31:34.696Z,45.60
2018-07-16T01:32:38.098Z,45.60
2018-07-16T01:33:41.496Z,45.70
2018-07-16T01:34:44.891Z,45.70
2018-07-16T01:35:49.333Z,45.70
2018-07-16T01:36:52.744Z,45.80
2018-07-16T01:37:56.148Z,45.80
2018-07-16T01:38:59.542Z,45.90
2018-07-16T01:40:03.009Z,45.90
2018-07-16T01:41:07.799Z,46.00
2018-07-16T01:42:11.215Z,46.00
2018-07-16T01:43:14.598Z,46.10
2018-07-16T01:44:17.983Z,46.10
2018-07-16T01:45:21.854Z,46.20
2018-07-16T01:46:26.948Z,46.20
2018-07-16T01:48:33.469Z,46.20
2018-07-16T01:49:36.859Z,46.20
2018-07-16T01:50:41.403Z,46.30
2018-07-16T01:51:44.807Z,46.40
2018-07-16T01:52:48.212Z,46.40
2018-07-16T01:55:58.879Z,46.50
2018-07-16T01:57:02.329Z,46.50
2018-07-16T01:58:05.711Z,46.50
2018-07-16T01:59:09.103Z,46.50
2018-07-16T02:00:14.137Z,46.50
2018-07-16T02:02:21.330Z,46.50
2018-07-16T02:03:26.024Z,46.50
2018-07-16T02:04:29.411Z,46.50
2018-07-16T02:05:33.921Z,46.50
2018-07-16T02:08:43.543Z,47.00
2018-07-16T02:09:46.923Z,46.50
2018-07-16T02:10:51.792Z,46.50
2018-07-16T02:14:01.380Z,46.50
2018-07-16T02:15:05.632Z,46.50
2018-07-16T02:16:11.068Z,46.60
2018-07-16T02:17:14.467Z,46.60
2018-07-16T02:18:17.883Z,46.60
2018-07-16T02:19:21.272Z,46.70
2018-07-16T02:20:27.320Z,46.70
2018-07-16T02:21:30.746Z,46.70
2018-07-16T02:22:34.439Z,46.70
2018-07-16T02:23:37.880Z,46.80
2018-07-16T02:24:41.275Z,46.90
2018-07-16T02:25:46.072Z,46.90
2018-07-16T02:26:49.471Z,46.90
2018-07-16T02:28:55.953Z,47.00
2018-07-16T02:29:59.331Z,47.00
2018-07-16T02:31:03.663Z,47.00
2018-07-16T02:32:07.072Z,47.10
2018-07-16T02:33:11.379Z,47.10
2018-07-16T02:34:14.776Z,47.10
2018-07-16T02:35:19.110Z,47.20
2018-07-16T02:36:24.231Z,47.90
2018-07-16T02:37:27.637Z,47.50
2018-07-16T02:38:31.044Z,47.50
2018-07-16T02:39:34.448Z,47.70
2018-07-16T02:40:39.346Z,47.70
2018-07-16T02:41:42.763Z,48.10
2018-07-16T02:42:46.148Z,47.80
2018-07-16T02:43:49.541Z,47.70
2018-07-16T02:44:52.944Z,47.70
2018-07-16T02:45:57.263Z,47.70
2018-07-16T02:47:00.676Z,47.80
2018-07-16T02:48:04.077Z,47.80
2018-07-16T02:49:07.483Z,47.80
2018-07-16T02:50:12.744Z,47.90
2018-07-16T02:51:17.371Z,47.90
2018-07-16T02:52:20.803Z,47.90
2018-07-16T02:53:24.192Z,47.90
2018-07-16T02:54:27.711Z,48.00
2018-07-16T02:55:32.054Z,48.00
2018-07-16T02:56:35.599Z,48.10
2018-07-16T02:57:38.915Z,48.10
2018-07-16T02:58:42.305Z,48.20
2018-07-16T03:00:49.863Z,48.30
2018-07-16T03:02:56.388Z,48.40
2018-07-16T03:03:59.782Z,48.40
2018-07-16T03:05:04.291Z,48.40
2018-07-16T03:06:08.736Z,48.40
2018-07-16T03:08:15.413Z,48.60
2018-07-16T03:09:18.812Z,48.80
2018-07-16T03:10:23.570Z,48.90
2018-07-16T03:11:28.477Z,49.00
2018-07-16T03:12:31.873Z,49.00
2018-07-16T03:13:35.247Z,49.20
2018-07-16T03:14:38.658Z,49.30
2018-07-16T03:15:43.097Z,49.40
2018-07-16T03:16:46.496Z,49.60
2018-07-16T03:17:49.879Z,49.70
2018-07-16T03:18:53.283Z,49.70
2018-07-16T03:19:56.666Z,49.80
2018-07-16T03:21:01.211Z,49.90
2018-07-16T03:22:04.834Z,49.90
2018-07-16T03:23:08.215Z,49.90
2018-07-16T03:24:11.596Z,49.90
2018-07-16T03:25:16.142Z,49.80
2018-07-16T03:27:23.639Z,49.50
2018-07-16T03:28:27.021Z,49.80
2018-07-16T03:29:30.631Z,49.80
2018-07-16T03:31:37.790Z,49.70
2018-07-16T03:32:41.176Z,49.70
2018-07-16T03:33:44.571Z,49.70
2018-07-16T03:34:48.230Z,49.70
2018-07-16T03:35:52.665Z,49.70
2018-07-16T03:36:56.116Z,49.70
2018-07-16T03:37:59.508Z,49.70
2018-07-16T03:39:02.956Z,49.60
2018-07-16T03:40:07.689Z,49.60
2018-07-16T03:41:12.234Z,49.60
2018-07-16T03:42:15.671Z,49.70
2018-07-16T03:43:19.055Z,49.70
2018-07-16T03:44:22.444Z,49.70
2018-07-16T03:45:27.692Z,49.70
2018-07-16T03:46:31.307Z,50.20
2018-07-16T03:47:34.712Z,49.70
2018-07-16T03:48:38.087Z,49.70
2018-07-16T03:49:41.477Z,49.70
2018-07-16T03:50:45.833Z,49.60
2018-07-16T03:51:49.233Z,49.70
2018-07-16T03:52:52.636Z,49.70
2018-07-16T03:53:56.019Z,49.70
2018-07-16T03:54:59.411Z,49.80
2018-07-16T03:56:04.094Z,49.80
2018-07-16T03:57:07.503Z,49.80
2018-07-16T03:58:10.895Z,49.80
2018-07-16T03:59:14.271Z,49.80
2018-07-16T04:00:18.982Z,49.80
2018-07-16T04:01:23.400Z,49.90
2018-07-16T04:02:26.835Z,49.90
2018-07-16T04:03:30.219Z,50.10
2018-07-16T04:04:33.615Z,50.10
2018-07-16T04:05:38.105Z,50.10
2018-07-16T04:06:41.535Z,50.10
2018-07-16T04:07:44.939Z,50.10
2018-07-16T04:08:48.335Z,50.10
2018-07-16T04:09:51.723Z,50.20
2018-07-16T04:10:56.191Z,50.30
2018-07-16T04:11:59.602Z,50.30
2018-07-16T04:13:03.020Z,50.30
2018-07-16T04:14:06.447Z,50.30
2018-07-16T04:15:10.994Z,50.40
2018-07-16T04:16:16.568Z,50.50
2018-07-16T04:17:26.279Z,50.60
2018-07-16T04:18:29.712Z,50.70
2018-07-16T04:19:33.071Z,50.70
2018-07-16T04:20:37.501Z,50.70
2018-07-16T04:21:40.907Z,50.70
2018-07-16T04:23:47.404Z,50.90
2018-07-16T04:24:50.795Z,50.80
2018-07-16T04:25:55.291Z,50.90
2018-07-16T04:26:58.695Z,50.90
2018-07-16T04:28:02.090Z,51.10
2018-07-16T04:29:05.494Z,51.10
2018-07-16T04:30:09.149Z,51.20
2018-07-16T04:31:13.612Z,51.20
2018-07-16T04:32:17.011Z,51.30
2018-07-16T04:33:20.403Z,51.30
2018-07-16T04:34:23.819Z,51.30
2018-07-16T04:35:28.167Z,51.40
2018-07-16T04:36:31.563Z,51.40
2018-07-16T04:37:34.951Z,51.50
2018-07-16T04:38:38.343Z,51.50
2018-07-16T04:39:41.733Z,51.50
2018-07-16T04:40:46.249Z,51.40
2018-07-16T04:41:49.651Z,51.40
2018-07-16T04:42:53.031Z,51.50
2018-07-16T04:43:56.416Z,51.50
2018-07-16T04:44:59.827Z,51.50
2018-07-16T04:46:04.279Z,51.50
2018-07-16T04:47:07.699Z,52.00
2018-07-16T04:48:11.087Z,51.50
2018-07-16T04:49:14.519Z,51.50
2018-07-16T04:50:18.885Z,51.60
2018-07-16T04:51:23.739Z,51.50
2018-07-16T04:52:27.167Z,51.50
2018-07-16T04:53:30.606Z,51.60
2018-07-16T04:54:33.981Z,51.60
2018-07-16T04:55:38.495Z,51.60
2018-07-16T04:56:41.911Z,51.60
2018-07-16T04:57:45.432Z,51.60
2018-07-16T04:58:48.872Z,51.50
2018-07-16T04:59:52.262Z,51.60
2018-07-16T05:00:56.630Z,51.60
2018-07-16T05:02:00.027Z,51.60
2018-07-16T05:03:03.446Z,51.60
2018-07-16T05:04:06.799Z,51.60
2018-07-16T05:06:15.794Z,51.60
2018-07-16T05:07:19.233Z,51.60
2018-07-16T05:08:22.625Z,51.80
2018-07-16T05:09:26.011Z,51.80
2018-07-16T05:10:30.574Z,51.80
2018-07-16T05:11:34.027Z,51.80
2018-07-16T05:12:37.423Z,51.70
2018-07-16T05:13:40.808Z,51.70
2018-07-16T05:14:44.212Z,51.70
2018-07-16T05:15:48.628Z,51.70
2018-07-16T05:16:52.067Z,51.90
2018-07-16T05:17:55.504Z,51.80
2018-07-16T05:18:58.897Z,51.80
2018-07-16T05:20:02.515Z,51.80
2018-07-16T05:21:07.746Z,51.70
2018-07-16T05:22:11.179Z,51.70
2018-07-16T05:23:14.565Z,51.60
2018-07-16T05:24:17.947Z,51.60
2018-07-16T05:25:22.538Z,51.60
2018-07-16T05:26:27.352Z,51.60
2018-07-16T05:27:30.755Z,51.50
2018-07-16T05:28:34.135Z,51.50
2018-07-16T05:29:37.530Z,51.50
2018-07-16T05:30:42.668Z,51.50
2018-07-16T05:31:46.137Z,51.50
2018-07-16T05:32:49.560Z,51.50
2018-07-16T05:33:52.916Z,51.50
2018-07-16T05:34:56.389Z,51.60
2018-07-16T05:36:00.863Z,51.60
2018-07-16T05:37:04.274Z,51.70
2018-07-16T05:38:07.684Z,51.70
2018-07-16T05:39:11.119Z,51.70
2018-07-16T05:40:15.519Z,51.70
2018-07-16T05:41:20.082Z,51.70
2018-07-16T05:42:23.477Z,51.80
2018-07-16T05:43:26.888Z,51.80
2018-07-16T05:44:30.293Z,51.80
2018-07-16T05:45:35.024Z,51.80
2018-07-16T05:46:38.444Z,51.60
2018-07-16T05:47:41.827Z,51.40
2018-07-16T05:48:45.243Z,50.90
2018-07-16T05:49:48.638Z,50.70
2018-07-16T05:50:53.047Z,50.50
2018-07-16T05:51:56.465Z,50.30
2018-07-16T05:52:59.847Z,50.10
2018-07-16T05:54:03.251Z,50.00
2018-07-16T05:55:08.418Z,50.00
2018-07-16T05:56:13.705Z,49.90
2018-07-16T05:57:17.135Z,49.90
2018-07-16T05:58:20.679Z,49.70
2018-07-16T05:59:23.943Z,49.70
2018-07-16T06:01:32.658Z,49.50
2018-07-16T06:02:36.053Z,49.40
2018-07-16T06:03:39.492Z,49.20
2018-07-16T06:04:43.271Z,49.10
2018-07-16T06:05:47.673Z,49.00
2018-07-16T06:06:51.147Z,48.90
2018-07-16T06:07:54.546Z,48.80
2018-07-16T06:08:57.952Z,48.60
2018-07-16T06:10:01.343Z,48.50
2018-07-16T06:11:05.771Z,48.50
2018-07-16T06:12:09.176Z,48.50
2018-07-16T06:13:12.563Z,48.50
2018-07-16T06:16:23.813Z,48.60
2018-07-16T06:17:27.231Z,48.50
2018-07-16T06:20:37.888Z,48.20
2018-07-16T06:21:41.290Z,48.10
2018-07-16T06:24:50.975Z,48.00
2018-07-16T06:25:55.415Z,48.00
2018-07-16T06:26:58.927Z,48.10
2018-07-16T06:31:13.634Z,47.90
2018-07-16T06:32:17.090Z,47.90
2018-07-16T06:33:20.502Z,47.90
2018-07-16T06:34:23.891Z,48.00
2018-07-16T06:35:28.914Z,48.00
2018-07-16T06:36:32.344Z,48.00
2018-07-16T06:37:35.952Z,47.80
2018-07-16T06:38:39.327Z,47.70
2018-07-16T06:39:42.847Z,47.80
2018-07-16T06:40:47.961Z,47.80
2018-07-16T06:42:54.507Z,47.80
2018-07-16T06:43:57.899Z,47.80
2018-07-16T06:45:01.291Z,48.00
2018-07-16T06:46:05.919Z,48.00
2018-07-16T06:47:09.343Z,48.10
2018-07-16T06:48:12.747Z,48.10
2018-07-16T06:49:16.128Z,48.20
2018-07-16T06:50:20.580Z,48.20
2018-07-16T06:51:25.538Z,48.20
2018-07-16T06:52:28.955Z,48.20
2018-07-16T06:53:32.387Z,48.20
2018-07-16T06:54:35.779Z,48.20
2018-07-16T06:55:40.768Z,48.20
2018-07-16T06:56:44.201Z,48.20
2018-07-16T06:57:47.595Z,48.20
2018-07-16T06:58:50.983Z,48.20
2018-07-16T06:59:54.367Z,48.20
2018-07-16T07:00:58.890Z,48.30
2018-07-16T07:02:02.354Z,48.30
2018-07-16T07:03:05.740Z,48.40
2018-07-16T07:04:09.139Z,48.40
2018-07-16T07:05:14.070Z,48.40
2018-07-16T07:06:19.015Z,48.50
2018-07-16T07:08:25.543Z,48.60
2018-07-16T07:09:28.940Z,48.60
2018-07-16T07:10:33.495Z,48.70
2018-07-16T07:11:36.903Z,48.70
2018-07-16T07:13:43.436Z,48.90
2018-07-16T07:14:46.818Z,49.10
2018-07-16T07:15:51.221Z,49.10
2018-07-16T07:16:54.655Z,49.30
2018-07-16T07:19:01.243Z,49.40
2018-07-16T07:20:05.577Z,49.50
2018-07-16T07:22:12.819Z,49.90
2018-07-16T07:23:16.227Z,49.50
2018-07-16T07:24:19.616Z,49.50
2018-07-16T07:25:24.172Z,49.60
2018-07-16T07:26:29.244Z,49.70
2018-07-16T07:27:32.630Z,49.80
2018-07-16T07:28:36.080Z,49.70
2018-07-16T07:29:39.463Z,49.70
2018-07-16T07:30:44.032Z,49.80
2018-07-16T07:31:47.443Z,49.80
2018-07-16T07:32:50.839Z,49.90
2018-07-16T07:33:54.243Z,49.80
2018-07-16T07:34:57.666Z,49.90
2018-07-16T07:36:03.633Z,50.00
2018-07-16T07:37:06.964Z,50.00
2018-07-16T07:39:13.523Z,49.90
2018-07-16T07:42:24.677Z,50.00
2018-07-16T07:43:28.269Z,50.10
2018-07-16T07:44:31.696Z,50.10
2018-07-16T07:46:38.817Z,50.30
2018-07-16T07:47:42.247Z,50.20
2018-07-16T07:48:45.627Z,50.30
2018-07-16T07:49:49.171Z,50.30
2018-07-16T07:50:53.677Z,50.40
2018-07-16T07:51:57.111Z,50.50
2018-07-16T07:53:00.499Z,50.50
2018-07-16T07:54:03.920Z,50.60
2018-07-16T07:55:07.895Z,50.60
2018-07-16T07:56:11.913Z,50.70
2018-07-16T07:57:15.383Z,50.80
2018-07-16T07:58:18.762Z,50.80
2018-07-16T07:59:22.267Z,50.80
2018-07-16T08:00:26.801Z,50.80
2018-07-16T08:01:30.371Z,51.20
2018-07-16T08:04:39.927Z,51.10
2018-07-16T08:06:14.972Z,51.00
2018-07-16T08:07:18.391Z,51.00
2018-07-16T08:08:21.785Z,51.00
2018-07-16T08:09:25.172Z,51.00
2018-07-16T08:10:29.704Z,50.90
2018-07-16T08:11:33.180Z,50.90
2018-07-16T08:12:36.603Z,50.90
2018-07-16T08:13:40.094Z,50.90
2018-07-16T08:14:44.241Z,50.90
2018-07-16T08:15:48.661Z,51.00
2018-07-16T08:17:55.194Z,51.00
2018-07-16T08:18:58.585Z,51.10
2018-07-16T08:20:02.007Z,51.00
2018-07-16T08:23:12.527Z,51.40
2018-07-16T08:24:15.937Z,51.30
2018-07-16T08:25:21.048Z,50.80
2018-07-16T08:27:28.110Z,50.90
2018-07-16T08:28:31.507Z,50.60
2018-07-16T08:29:34.899Z,50.20
2018-07-16T08:30:40.031Z,50.20
2018-07-16T08:32:46.755Z,50.50
2018-07-16T08:33:50.152Z,50.20
2018-07-16T08:34:53.563Z,50.30
2018-07-16T08:35:58.800Z,50.30
2018-07-16T08:37:02.212Z,50.20
2018-07-16T08:38:05.803Z,50.20
2018-07-16T08:39:09.262Z,50.20
2018-07-16T08:41:18.304Z,50.10
2018-07-16T08:42:21.723Z,50.00
2018-07-16T08:43:25.158Z,50.00
2018-07-16T08:44:28.572Z,50.10
2018-07-16T08:45:33.016Z,50.10
2018-07-16T08:46:36.430Z,50.00
2018-07-16T08:47:39.812Z,49.90
2018-07-16T08:48:49.891Z,49.80
2018-07-16T08:49:53.280Z,49.60
2018-07-16T08:50:57.830Z,49.40
2018-07-16T08:52:01.241Z,49.30
2018-07-16T08:53:04.635Z,49.20
2018-07-16T08:54:08.051Z,49.20
2018-07-16T08:55:12.327Z,49.10
2018-07-16T08:56:17.298Z,49.00
2018-07-16T08:57:20.687Z,49.50
2018-07-16T08:58:24.076Z,49.00
2018-07-16T08:59:27.473Z,48.90
2018-07-16T09:00:32.141Z,48.90
2018-07-16T09:01:35.551Z,48.90
2018-07-16T09:02:38.948Z,49.00
2018-07-16T09:03:42.327Z,48.80
2018-07-16T09:04:45.766Z,48.80
2018-07-16T09:05:55.502Z,48.90
2018-07-16T09:06:58.965Z,48.80
2018-07-16T09:08:02.312Z,48.80
2018-07-16T09:09:06.261Z,48.90
2018-07-16T09:10:10.421Z,48.90
2018-07-16T09:11:15.018Z,48.80
2018-07-16T09:13:21.660Z,48.70
2018-07-16T09:14:24.976Z,48.70
2018-07-16T09:15:29.488Z,48.70
2018-07-16T09:17:36.737Z,49.00
2018-07-16T09:18:40.120Z,48.50
2018-07-16T09:19:43.508Z,48.50
2018-07-16T09:20:48.095Z,48.40
2018-07-16T09:21:51.520Z,48.30
2018-07-16T09:22:55.034Z,48.20
2018-07-16T09:23:58.422Z,48.10
2018-07-16T09:25:01.807Z,48.20
2018-07-16T09:26:06.318Z,48.10
2018-07-16T09:27:09.724Z,47.70
2018-07-16T09:28:13.123Z,47.70
2018-07-16T09:29:16.511Z,47.50
2018-07-16T09:32:27.782Z,47.20
2018-07-16T09:33:31.175Z,47.10
2018-07-16T09:35:38.779Z,47.70
2018-07-16T09:36:42.233Z,46.70
2018-07-16T09:37:45.623Z,47.10
2018-07-16T09:38:49.004Z,47.00
2018-07-16T09:39:52.391Z,46.80
2018-07-16T09:40:56.685Z,46.80
2018-07-16T09:42:00.103Z,46.50
2018-07-16T09:45:11.000Z,46.00
2018-07-16T09:46:15.977Z,45.80
2018-07-16T09:47:19.415Z,45.80
2018-07-16T09:48:22.811Z,45.70
2018-07-16T09:49:26.199Z,45.70
2018-07-16T09:50:30.646Z,45.70
2018-07-16T09:51:34.035Z,45.70
2018-07-16T09:52:37.468Z,45.60
2018-07-16T09:53:40.867Z,45.60
2018-07-16T09:54:44.239Z,45.30
2018-07-16T09:55:49.252Z,45.00
2018-07-16T09:56:52.660Z,44.70
2018-07-16T09:57:56.715Z,44.50
2018-07-16T09:59:00.108Z,44.50
2018-07-16T10:01:12.636Z,44.90
2018-07-16T10:02:17.249Z,44.40
2018-07-16T10:03:20.659Z,44.50
2018-07-16T10:04:24.038Z,44.60
2018-07-16T10:05:28.564Z,44.60
2018-07-16T10:06:31.967Z,44.60
2018-07-16T10:07:35.500Z,44.70
2018-07-16T10:08:38.903Z,44.70
2018-07-16T10:09:42.291Z,44.70
2018-07-16T10:10:47.739Z,44.80
2018-07-16T10:11:51.159Z,44.90
2018-07-16T10:12:54.932Z,45.10
2018-07-16T10:13:58.315Z,45.20
2018-07-16T10:15:01.711Z,45.00
2018-07-16T10:16:06.382Z,45.00
2018-07-16T10:17:10.327Z,44.90
2018-07-16T10:18:13.711Z,44.60
2018-07-16T10:19:17.131Z,44.60
2018-07-16T10:20:21.573Z,44.50
2018-07-16T10:21:25.267Z,44.60
2018-07-16T10:22:28.687Z,44.60
2018-07-16T10:23:32.067Z,44.70
2018-07-16T10:24:35.479Z,44.60
2018-07-16T10:25:39.976Z,44.40
2018-07-16T10:26:43.395Z,44.30
2018-07-16T10:27:46.795Z,44.10
2018-07-16T10:28:50.175Z,43.40
2018-07-16T10:30:57.718Z,42.70
2018-07-16T10:32:01.137Z,42.60
2018-07-16T10:33:04.512Z,42.60
2018-07-16T10:34:07.895Z,42.40
2018-07-16T10:35:12.402Z,42.60
2018-07-16T10:36:16.833Z,42.80
2018-07-16T10:37:20.251Z,42.90
2018-07-16T10:38:23.664Z,43.00
2018-07-16T10:39:27.152Z,42.80
2018-07-16T10:40:31.566Z,43.30
2018-07-16T10:41:34.971Z,42.50
2018-07-16T10:42:38.352Z,42.40
2018-07-16T10:43:41.743Z,42.30
2018-07-16T10:44:45.127Z,42.40
2018-07-16T10:45:51.208Z,43.00
2018-07-16T10:46:54.635Z,42.60
2018-07-16T10:47:58.021Z,42.70
2018-07-16T10:49:04.410Z,42.90
2018-07-16T10:50:08.738Z,42.90
2018-07-16T10:52:16.071Z,42.60
2018-07-16T10:53:19.470Z,42.40
2018-07-16T10:54:22.847Z,42.10
2018-07-16T10:55:28.205Z,41.80
2018-07-16T10:56:31.631Z,41.60
2018-07-16T10:59:41.323Z,41.20
2018-07-16T11:00:45.908Z,41.00
2018-07-16T11:02:52.429Z,41.00
2018-07-16T11:03:55.787Z,40.90
2018-07-16T11:04:59.171Z,40.90
2018-07-16T11:06:08.578Z,40.90
2018-07-16T11:07:12.019Z,40.90
2018-07-16T11:08:15.391Z,40.90
2018-07-16T11:09:18.775Z,40.60
2018-07-16T11:10:23.257Z,40.50
2018-07-16T11:11:27.699Z,40.40
2018-07-16T11:12:31.300Z,40.30
2018-07-16T11:13:34.736Z,39.90
2018-07-16T11:14:38.116Z,39.80
2018-07-16T11:15:42.597Z,39.80
2018-07-16T11:16:45.995Z,39.50
2018-07-16T11:17:49.402Z,39.40
2018-07-16T11:18:52.783Z,39.40
2018-07-16T11:19:56.164Z,39.40
2018-07-16T11:21:01.602Z,39.20
2018-07-16T11:22:04.975Z,39.00
2018-07-16T11:23:08.415Z,38.70
2018-07-16T11:24:11.795Z,38.30
2018-07-16T11:25:16.169Z,38.10
2018-07-16T11:26:20.708Z,37.90
2018-07-16T11:27:24.127Z,37.90
2018-07-16T11:28:27.527Z,37.90
2018-07-16T11:30:35.184Z,37.90
2018-07-16T11:31:38.591Z,37.90
2018-07-16T11:32:41.979Z,37.40
2018-07-16T11:33:45.383Z,37.80
2018-07-16T11:36:56.168Z,37.40
2018-07-16T11:37:59.551Z,37.40
2018-07-16T11:39:03.028Z,37.40
2018-07-16T11:42:14.215Z,37.20
2018-07-16T11:43:17.755Z,37.30
2018-07-16T11:44:21.309Z,37.40
2018-07-16T11:45:25.733Z,37.50
2018-07-16T11:46:29.612Z,37.60
2018-07-16T11:47:32.991Z,37.30
2018-07-16T11:48:36.375Z,37.20
2018-07-16T11:50:43.851Z,36.90
2018-07-16T11:51:47.259Z,37.00
2018-07-16T11:52:50.645Z,37.00
2018-07-16T11:53:54.031Z,37.10
2018-07-16T11:54:57.455Z,37.20
2018-07-16T11:56:01.784Z,37.20
2018-07-16T11:57:05.191Z,37.20
2018-07-16T12:02:23.084Z,35.70
2018-07-16T12:03:26.497Z,35.40
2018-07-16T12:04:29.840Z,35.40
2018-07-16T12:05:34.895Z,35.20
2018-07-16T12:06:38.299Z,35.00
2018-07-16T12:07:41.680Z,34.80
2018-07-16T12:08:45.063Z,34.80
2018-07-16T12:09:48.441Z,34.80
2018-07-16T12:10:54.359Z,34.80
2018-07-16T12:11:57.783Z,34.50
2018-07-16T12:13:01.173Z,34.00
2018-07-16T12:14:04.579Z,33.90
2018-07-16T12:16:12.982Z,34.40
2018-07-16T12:19:22.526Z,33.30
2018-07-16T12:20:27.053Z,33.00
2018-07-16T12:21:31.569Z,33.30
2018-07-16T12:22:34.991Z,33.40
2018-07-16T12:23:38.363Z,33.50
2018-07-16T12:24:41.852Z,34.30
2018-07-16T12:25:46.471Z,33.80
2018-07-16T12:26:50.522Z,33.70
2018-07-16T12:27:53.954Z,33.80
2018-07-16T12:28:57.344Z,33.60
2018-07-16T12:30:00.726Z,33.50
2018-07-16T12:31:05.145Z,33.60
2018-07-16T12:32:08.577Z,33.30
2018-07-16T12:33:11.967Z,33.30
2018-07-16T12:34:15.347Z,33.30
2018-07-16T12:35:20.693Z,33.40
2018-07-16T12:36:25.735Z,33.40
2018-07-16T12:37:29.163Z,33.40
2018-07-16T12:38:32.564Z,32.80
2018-07-16T12:39:35.952Z,33.40
2018-07-16T12:40:40.381Z,33.60
2018-07-16T12:41:43.837Z,33.50
2018-07-16T12:42:47.191Z,33.60
2018-07-16T12:43:50.579Z,33.90
2018-07-16T12:44:53.952Z,33.60
2018-07-16T12:45:58.330Z,33.10
2018-07-16T12:47:01.778Z,33.10
2018-07-16T12:48:05.219Z,33.40
2018-07-16T12:49:08.579Z,33.20
2018-07-16T12:50:12.945Z,33.30
2018-07-16T12:51:17.694Z,33.30
2018-07-16T12:52:21.099Z,33.20
2018-07-16T12:53:24.507Z,33.10
2018-07-16T12:54:27.891Z,33.10
2018-07-16T12:55:32.551Z,32.70
2018-07-16T12:56:36.016Z,33.00
2018-07-16T12:57:39.394Z,32.80
2018-07-16T12:59:45.896Z,33.20
2018-07-16T13:00:50.350Z,33.10
2018-07-16T13:01:53.740Z,33.00
2018-07-16T13:04:00.202Z,32.40
2018-07-16T13:05:04.074Z,32.20
2018-07-16T13:06:08.554Z,32.20
2018-07-16T13:07:11.867Z,32.00
2018-07-16T13:08:15.231Z,32.10
2018-07-16T13:09:18.619Z,32.60
2018-07-16T13:10:23.165Z,32.10
2018-07-16T13:11:27.675Z,32.20
2018-07-16T13:12:31.054Z,32.30
2018-07-16T13:13:34.427Z,32.30
2018-07-16T13:14:37.851Z,32.10
2018-07-16T13:15:42.342Z,31.90
2018-07-16T13:16:45.779Z,31.80
2018-07-16T13:17:49.172Z,31.80
2018-07-16T13:18:52.553Z,31.80
2018-07-16T13:19:55.955Z,31.60
2018-07-16T13:21:00.392Z,31.70
2018-07-16T13:22:03.800Z,31.60
2018-07-16T13:23:07.359Z,31.30
2018-07-16T13:24:10.747Z,31.20
2018-07-16T13:25:15.293Z,31.20
2018-07-16T13:26:19.606Z,31.10
2018-07-16T13:27:23.055Z,30.90
2018-07-16T13:28:26.423Z,30.80
2018-07-16T13:29:30.323Z,30.70
2018-07-16T13:30:34.819Z,30.70
2018-07-16T13:31:38.205Z,30.60
2018-07-16T13:32:41.571Z,30.40
2018-07-16T13:33:44.950Z,30.40
2018-07-16T13:34:48.324Z,30.40
2018-07-16T13:35:52.891Z,30.30
2018-07-16T13:36:56.698Z,29.90
2018-07-16T13:38:00.081Z,29.90
2018-07-16T13:39:04.595Z,30.00
2018-07-16T13:40:09.023Z,30.10
2018-07-16T13:41:13.392Z,30.00
2018-07-16T13:42:16.776Z,30.00
2018-07-16T13:43:20.156Z,30.00
2018-07-16T13:44:23.527Z,30.00
2018-07-16T13:45:28.095Z,30.10
2018-07-16T13:46:31.654Z,30.30
2018-07-16T13:47:34.914Z,30.40
2018-07-16T13:48:38.280Z,30.60
2018-07-16T13:49:41.691Z,30.50
2018-07-16T13:50:46.183Z,30.70
2018-07-16T13:51:49.607Z,30.90
2018-07-16T13:52:52.987Z,30.90
2018-07-16T13:53:56.351Z,31.00
2018-07-16T13:54:59.735Z,30.60
2018-07-16T13:56:05.037Z,30.50
2018-07-16T13:57:08.439Z,30.50
2018-07-16T13:58:11.808Z,30.40
2018-07-16T13:59:15.184Z,30.30
2018-07-16T14:00:19.657Z,30.20
2018-07-16T14:01:25.295Z,30.20
2018-07-16T14:02:28.731Z,30.10
2018-07-16T14:03:32.124Z,30.00
2018-07-16T14:04:35.544Z,30.00
2018-07-16T14:05:39.964Z,30.00
2018-07-16T14:06:43.391Z,29.90
2018-07-16T14:07:46.787Z,29.60
2018-07-16T14:08:50.163Z,29.50
2018-07-16T14:09:53.539Z,29.40
2018-07-16T14:10:57.725Z,29.30
2018-07-16T14:12:01.115Z,29.40
2018-07-16T14:13:04.639Z,29.50
2018-07-16T14:14:08.091Z,29.50
2018-07-16T14:15:13.029Z,29.30
2018-07-16T14:16:17.398Z,29.30
2018-07-16T14:17:20.783Z,29.20
2018-07-16T14:18:24.191Z,29.20
2018-07-16T14:19:27.597Z,29.20
2018-07-16T14:20:32.077Z,28.80
2018-07-16T14:21:35.685Z,28.60
2018-07-16T14:22:39.053Z,28.70
2018-07-16T14:23:42.455Z,28.70
2018-07-16T14:24:45.876Z,28.60
2018-07-16T14:25:50.283Z,28.60
2018-07-16T14:26:53.676Z,28.60
2018-07-16T14:27:57.125Z,28.50
2018-07-16T14:29:00.476Z,28.40
2018-07-16T14:30:04.291Z,28.40
2018-07-16T14:31:08.846Z,28.40
2018-07-16T14:33:15.504Z,28.40
2018-07-16T14:34:18.905Z,28.40
2018-07-16T14:35:23.536Z,28.40
2018-07-16T14:36:28.189Z,28.50
2018-07-16T14:37:31.902Z,28.50
2018-07-16T14:38:35.279Z,28.40
2018-07-16T14:39:38.717Z,28.50
2018-07-16T14:40:43.124Z,28.00
2018-07-16T14:42:49.580Z,27.90
2018-07-16T14:43:52.949Z,27.50
2018-07-16T14:44:56.411Z,27.20
2018-07-16T14:46:01.019Z,27.40
2018-07-16T14:47:04.424Z,27.50
2018-07-16T14:48:07.892Z,27.10
2018-07-16T14:49:11.264Z,27.00
2018-07-16T14:50:15.316Z,26.80
2018-07-16T14:51:19.806Z,26.80
2018-07-16T14:52:23.209Z,27.00
2018-07-16T14:53:26.600Z,26.90
2018-07-16T14:54:29.971Z,26.90
2018-07-16T14:55:34.412Z,26.80
2018-07-16T14:56:37.804Z,26.80
2018-07-16T14:57:41.171Z,26.40
2018-07-16T14:58:44.547Z,26.40
2018-07-16T14:59:47.934Z,26.40
2018-07-16T15:00:52.241Z,26.30
2018-07-16T15:01:55.644Z,26.30
2018-07-16T15:02:59.024Z,26.30
2018-07-16T15:04:02.399Z,26.70
2018-07-16T15:05:07.823Z,26.20
2018-07-16T15:06:13.076Z,26.20
2018-07-16T15:07:16.463Z,26.30
2018-07-16T15:08:20.056Z,26.30
2018-07-16T15:09:23.427Z,26.10
2018-07-16T15:10:27.800Z,26.00
2018-07-16T15:11:31.235Z,25.70
2018-07-16T15:12:34.643Z,25.70
2018-07-16T15:13:38.069Z,25.70